Time;durP1;ratioP1;P1;durP2;ratioP2;P2;SDS_P1;SDS_P2;PMS_P1;PMS_P2;Temp;Humidity;BMP_temperature;BMP_pressure;BME280_temperature;BME280_humidity;BME280_pressure;Samples;Min_cycle;Max_cycle;Signal;HPM_P1;HPM_P2
2022/12/26 00:06:18;;;;;;;34.00;12.13;;;;;;;8.59;100.00;100083.84;31606156;28;20056;-74
2022/12/26 00:21:22;;;;;;;46.07;14.00;;;;;;;8.32;100.00;100102.66;31620701;28;20056;-72
2022/12/26 00:36:30;;;;;;;46.10;13.67;;;;;;;8.10;100.00;100112.91;31630672;28;20108;-74
2022/12/26 00:51:32;;;;;;;46.93;14.13;;;;;;;7.84;100.00;100069.13;31659783;28;20053;-74
2022/12/26 01:06:34;;;;;;;34.07;11.80;;;;;;;7.57;100.00;100043.88;31665116;28;20109;-74
2022/12/26 01:21:36;;;;;;;36.13;11.67;;;;;;;7.61;100.00;100023.00;31621372;28;20049;-73
2022/12/26 01:36:38;;;;;;;87.83;27.63;;;;;;;7.77;100.00;100044.88;31643215;28;20044;-73
2022/12/26 01:51:47;;;;;;;41.40;12.77;;;;;;;7.86;100.00;100084.94;31617185;28;20093;-75
2022/12/26 02:06:49;;;;;;;39.90;13.90;;;;;;;7.76;100.00;100077.72;31623559;28;20157;-74
2022/12/26 02:22:13;;;;;;;62.57;12.40;;;;;;;7.79;100.00;100102.00;31599673;28;20044;-73
2022/12/26 02:37:30;;;;;;;43.33;11.33;;;;;;;7.81;100.00;100118.56;31633168;28;20056;-74
2022/12/26 03:23:40;;;;;;;89.90;14.23;;;;;;;7.61;100.00;100174.31;31649620;28;20052;-72
2022/12/26 03:39:12;;;;;;;37.60;13.70;;;;;;;7.76;100.00;100189.28;31632847;28;20051;-73
2022/12/26 07:34:24;;;;;;;34.00;12.30;;;;;;;9.39;100.00;99630.72;31145177;27;20398;-75
2022/12/26 07:49:32;;;;;;;34.57;12.03;;;;;;;9.03;100.00;100238.00;31270103;28;20134;-74
2022/12/26 08:04:34;;;;;;;51.43;15.20;;;;;;;8.96;100.00;100408.69;31322617;28;20105;-74
2022/12/26 08:19:36;;;;;;;49.33;15.10;;;;;;;9.10;100.00;100468.13;31126018;28;20058;-77
2022/12/26 08:34:37;;;;;;;41.77;15.17;;;;;;;8.99;100.00;100513.47;30995541;28;20057;-75
2022/12/26 08:49:40;;;;;;;35.50;13.70;;;;;;;8.60;100.00;100512.94;30962052;28;20525;-74
2022/12/26 09:04:42;;;;;;;40.03;14.83;;;;;;;8.12;100.00;100457.47;31008115;28;20046;-85
2022/12/26 09:19:44;;;;;;;38.57;14.63;;;;;;;8.06;100.00;100464.44;31003451;28;20058;-91
2022/12/26 09:34:48;;;;;;;34.63;14.83;;;;;;;8.01;100.00;100466.78;30995385;28;20112;-92
2022/12/26 09:50:03;;;;;;;36.67;15.43;;;;;;;8.22;100.00;100474.81;31023945;28;20141;-86
2022/12/26 10:05:08;;;;;;;41.50;18.60;;;;;;;8.11;100.00;100460.56;31004116;28;20095;-88
2022/12/26 10:20:34;;;;;;;54.23;20.77;;;;;;;8.81;100.00;100504.69;30988720;28;20054;-81
2022/12/26 10:35:41;;;;;;;47.50;18.53;;;;;;;8.67;100.00;100545.38;31035463;28;20040;-83
2022/12/26 10:50:47;;;;;;;42.73;17.60;;;;;;;8.65;100.00;100588.28;31048219;28;20407;-74
2022/12/26 11:05:54;;;;;;;37.13;14.50;;;;;;;8.55;100.00;100598.00;30987765;28;20050;-74
2022/12/26 11:21:18;;;;;;;37.93;15.57;;;;;;;8.71;100.00;100625.41;30982363;28;20541;-83
2022/12/26 11:36:26;;;;;;;38.67;15.17;;;;;;;9.57;100.00;100667.13;30973227;28;20166;-73
2022/12/26 11:51:47;;;;;;;42.53;15.80;;;;;;;9.45;100.00;100710.16;30978094;28;20111;-80
2022/12/26 12:07:41;;;;;;;33.17;13.77;;;;;;;9.34;100.00;100714.88;31006144;28;20050;-83
2022/12/26 12:23:14;;;;;;;27.27;9.60;;;;;;;9.17;100.00;100720.00;30990229;28;20065;-83
2022/12/26 12:38:55;;;;;;;31.27;10.30;;;;;;;8.34;100.00;100646.75;31060598;28;20141;-80
2022/12/26 12:54:06;;;;;;;35.80;11.70;;;;;;;8.30;100.00;100646.72;30999640;28;20057;-81
2022/12/26 17:40:33;;;;;;;48.77;14.43;;;;;;;8.36;100.00;100104.19;31178833;28;20898;-76
2022/12/26 17:55:35;;;;;;;46.73;12.60;;;;;;;8.05;100.00;100429.66;31084900;28;20108;-75
2022/12/26 18:10:37;;;;;;;43.07;14.33;;;;;;;8.18;100.00;100541.66;31064294;28;20042;-81
2022/12/26 18:25:39;;;;;;;33.40;12.53;;;;;;;8.11;100.00;100585.72;31088137;28;20065;-81
2022/12/26 18:40:45;;;;;;;43.10;14.97;;;;;;;8.26;100.00;100599.22;31006697;28;20054;-78
2022/12/26 18:55:47;;;;;;;107.67;41.70;;;;;;;7.96;100.00;100619.34;30997006;28;20050;-76
2022/12/26 19:11:20;;;;;;;30.27;11.33;;;;;;;7.93;100.00;100643.69;30994523;28;20054;-78
2022/12/26 19:27:03;;;;;;;27.27;10.67;;;;;;;7.98;100.00;100662.22;31179548;28;20525;-77
2022/12/26 19:42:33;;;;;;;29.13;11.77;;;;;;;7.82;100.00;100682.28;31146152;28;20497;-76
2022/12/26 19:57:35;;;;;;;28.60;12.37;;;;;;;7.75;100.00;100682.28;31067912;28;20412;-75
2022/12/26 20:12:37;;;;;;;29.77;12.77;;;;;;;7.96;100.00;100683.47;30975877;28;20042;-88
2022/12/26 20:27:39;;;;;;;29.03;14.87;;;;;;;7.70;100.00;100707.00;30969512;28;20058;-72
2022/12/26 20:42:41;;;;;;;34.50;12.70;;;;;;;7.56;100.00;100679.94;30980548;28;20491;-75
2022/12/26 20:57:43;;;;;;;23.03;11.67;;;;;;;7.47;100.00;100676.84;30962303;28;20058;-74
2022/12/26 21:12:45;;;;;;;24.70;12.03;;;;;;;7.46;100.00;100665.25;30981976;28;20781;-75
2022/12/26 21:27:48;;;;;;;18.37;8.97;;;;;;;7.30;100.00;100678.34;30964559;28;20132;-75
2022/12/26 21:42:50;;;;;;;20.27;9.00;;;;;;;7.06;100.00;100658.22;30943320;28;20050;-75
2022/12/26 21:57:53;;;;;;;17.40;8.50;;;;;;;7.17;100.00;100623.91;30950901;28;20054;-74
2022/12/26 22:12:55;;;;;;;17.60;8.97;;;;;;;6.94;100.00;100612.66;30974744;28;20054;-74
2022/12/26 22:27:58;;;;;;;24.67;9.40;;;;;;;6.91;100.00;100597.22;30992393;28;20500;-73
2022/12/26 22:43:00;;;;;;;27.37;10.23;;;;;;;6.53;100.00;100576.28;31012257;28;20538;-76
2022/12/26 22:58:02;;;;;;;25.73;9.93;;;;;;;6.61;100.00;100573.25;30993623;28;20085;-75
2022/12/26 23:13:04;;;;;;;20.73;7.90;;;;;;;6.58;100.00;100567.81;30989857;28;20067;-76
2022/12/26 23:43:27;;;;;;;14.57;7.23;;;;;;;6.64;100.00;100577.06;30985952;28;20105;-75
2022/12/26 23:58:29;;;;;;;21.23;8.03;;;;;;;6.44;100.00;100596.25;30974413;28;20470;-76
